sensor_id;sensor_type;location;lat;lon;timestamp;pressure;altitude;pressure_sealevel;temperature;humidity
71457;BME280;59263;48.160;11.752;2023-05-20T00:01:08;95827.44;;;11.72;100.00
71457;BME280;59263;48.160;11.752;2023-05-20T00:03:33;95856.78;;;11.91;100.00
71457;BME280;59263;48.160;11.752;2023-05-20T00:05:59;95855.75;;;11.83;100.00
71457;BME280;59263;48.160;11.752;2023-05-20T00:08:24;95849.50;;;11.76;100.00
71457;BME280;59263;48.160;11.752;2023-05-20T00:10:50;95843.66;;;11.74;100.00
71457;BME280;59263;48.160;11.752;2023-05-20T00:13:15;95868.81;;;11.82;100.00
71457;BME280;59263;48.160;11.752;2023-05-20T00:15:41;95879.75;;;11.85;100.00
71457;BME280;59263;48.160;11.752;2023-05-20T00:18:06;95843.53;;;11.58;100.00
71457;BME280;59263;48.160;11.752;2023-05-20T00:20:32;95861.72;;;11.66;100.00
71457;BME280;59263;48.160;11.752;2023-05-20T00:22:57;95843.13;;;11.53;100.00
71457;BME280;59263;48.160;11.752;2023-05-20T00:25:25;95900.19;;;11.89;100.00
71457;BME280;59263;48.160;11.752;2023-05-20T00:27:50;95878.16;;;11.75;100.00
71457;BME280;59263;48.160;11.752;2023-05-20T00:30:16;95860.03;;;11.57;100.00
71457;BME280;59263;48.160;11.752;2023-05-20T00:32:41;95878.25;;;11.65;100.00
71457;BME280;59263;48.160;11.752;2023-05-20T00:35:07;95870.09;;;11.60;100.00
71457;BME280;59263;48.160;11.752;2023-05-20T00:37:33;95906.09;;;11.81;100.00
71457;BME280;59263;48.160;11.752;2023-05-20T00:39:58;95847.59;;;11.43;100.00
71457;BME280;59263;48.160;11.752;2023-05-20T00:42:26;95898.91;;;11.75;100.00
71457;BME280;59263;48.160;11.752;2023-05-20T00:44:52;95907.19;;;11.78;100.00
71457;BME280;59263;48.160;11.752;2023-05-20T00:47:19;95900.09;;;11.80;100.00
71457;BME280;59263;48.160;11.752;2023-05-20T00:49:46;95908.69;;;11.81;100.00
71457;BME280;59263;48.160;11.752;2023-05-20T00:52:13;95903.28;;;11.74;100.00
71457;BME280;59263;48.160;11.752;2023-05-20T00:54:39;95908.84;;;11.79;100.00
71457;BME280;59263;48.160;11.752;2023-05-20T00:57:08;95848.19;;;11.36;100.00
71457;BME280;59263;48.160;11.752;2023-05-20T00:59:37;95900.03;;;11.72;100.00
71457;BME280;59263;48.160;11.752;2023-05-20T01:02:04;95916.31;;;11.82;100.00
71457;BME280;59263;48.160;11.752;2023-05-20T01:04:30;95904.31;;;11.81;100.00
71457;BME280;59263;48.160;11.752;2023-05-20T01:06:56;95893.59;;;11.76;100.00
71457;BME280;59263;48.160;11.752;2023-05-20T01:09:23;95891.50;;;11.80;100.00
71457;BME280;59263;48.160;11.752;2023-05-20T01:12:05;95878.84;;;11.77;100.00
71457;BME280;59263;48.160;11.752;2023-05-20T01:14:37;95879.59;;;11.69;100.00
71457;BME280;59263;48.160;11.752;2023-05-20T01:17:07;95895.88;;;11.79;100.00
71457;BME280;59263;48.160;11.752;2023-05-20T01:19:40;95892.31;;;11.80;100.00
71457;BME280;59263;48.160;11.752;2023-05-20T01:22:09;95894.66;;;11.83;100.00
71457;BME280;59263;48.160;11.752;2023-05-20T01:24:40;95807.63;;;11.27;100.00
71457;BME280;59263;48.160;11.752;2023-05-20T01:27:07;95887.94;;;11.81;100.00
71457;BME280;59263;48.160;11.752;2023-05-20T01:29:38;95836.25;;;11.44;100.00
71457;BME280;59263;48.160;11.752;2023-05-20T01:32:10;95876.19;;;11.69;100.00
71457;BME280;59263;48.160;11.752;2023-05-20T01:34:40;95879.28;;;11.72;100.00
71457;BME280;59263;48.160;11.752;2023-05-20T01:37:06;95855.66;;;11.57;100.00
71457;BME280;59263;48.160;11.752;2023-05-20T01:39:35;95814.22;;;11.39;100.00
71457;BME280;59263;48.160;11.752;2023-05-20T01:42:02;95835.00;;;11.48;100.00
71457;BME280;59263;48.160;11.752;2023-05-20T01:44:29;95819.00;;;11.34;100.00
71457;BME280;59263;48.160;11.752;2023-05-20T01:46:54;95886.09;;;11.73;100.00
71457;BME280;59263;48.160;11.752;2023-05-20T01:49:20;95822.84;;;11.30;100.00
71457;BME280;59263;48.160;11.752;2023-05-20T01:51:45;95884.47;;;11.72;100.00
71457;BME280;59263;48.160;11.752;2023-05-20T01:54:10;95853.72;;;11.59;100.00
71457;BME280;59263;48.160;11.752;2023-05-20T01:56:36;95832.88;;;11.43;100.00
71457;BME280;59263;48.160;11.752;2023-05-20T01:59:01;95863.00;;;11.62;100.00
71457;BME280;59263;48.160;11.752;2023-05-20T02:01:27;95814.94;;;11.32;100.00
71457;BME280;59263;48.160;11.752;2023-05-20T02:03:52;95843.47;;;11.50;100.00
71457;BME280;59263;48.160;11.752;2023-05-20T02:06:17;95863.00;;;11.62;100.00
71457;BME280;59263;48.160;11.752;2023-05-20T02:08:43;95862.72;;;11.65;100.00
71457;BME280;59263;48.160;11.752;2023-05-20T02:11:08;95814.84;;;11.42;100.00
71457;BME280;59263;48.160;11.752;2023-05-20T02:13:33;95833.09;;;11.50;100.00
71457;BME280;59263;48.160;11.752;2023-05-20T02:15:59;95827.22;;;11.48;100.00
71457;BME280;59263;48.160;11.752;2023-05-20T02:18:24;95865.94;;;11.67;100.00
71457;BME280;59263;48.160;11.752;2023-05-20T02:20:51;95862.72;;;11.65;100.00
71457;BME280;59263;48.160;11.752;2023-05-20T02:23:19;95850.38;;;11.49;100.00
71457;BME280;59263;48.160;11.752;2023-05-20T02:25:44;95864.31;;;11.66;100.00
71457;BME280;59263;48.160;11.752;2023-05-20T02:28:10;95837.22;;;11.43;100.00
71457;BME280;59263;48.160;11.752;2023-05-20T02:30:38;95873.38;;;11.62;100.00
71457;BME280;59263;48.160;11.752;2023-05-20T02:33:03;95822.84;;;11.30;100.00
71457;BME280;59263;48.160;11.752;2023-05-20T02:35:29;95863.22;;;11.51;100.00
71457;BME280;59263;48.160;11.752;2023-05-20T02:37:54;95848.41;;;11.43;100.00
71457;BME280;59263;48.160;11.752;2023-05-20T02:40:19;95815.00;;;11.22;100.00
71457;BME280;59263;48.160;11.752;2023-05-20T02:42:45;95868.75;;;11.56;100.00
71457;BME280;59263;48.160;11.752;2023-05-20T02:45:10;95792.00;;;11.01;100.00
71457;BME280;59263;48.160;11.752;2023-05-20T02:47:36;95848.47;;;11.33;100.00
71457;BME280;59263;48.160;11.752;2023-05-20T02:50:04;95834.63;;;11.25;100.00
71457;BME280;59263;48.160;11.752;2023-05-20T02:52:29;95796.44;;;11.09;100.00
71457;BME280;59263;48.160;11.752;2023-05-20T02:54:55;95822.84;;;11.30;100.00
71457;BME280;59263;48.160;11.752;2023-05-20T02:57:20;95842.84;;;11.38;100.00
71457;BME280;59263;48.160;11.752;2023-05-20T02:59:45;95828.34;;;11.27;100.00
71457;BME280;59263;48.160;11.752;2023-05-20T03:02:11;95848.78;;;11.48;100.00
71457;BME280;59263;48.160;11.752;2023-05-20T03:04:36;95842.03;;;11.37;100.00
71457;BME280;59263;48.160;11.752;2023-05-20T03:07:05;95799.75;;;11.01;100.00
71457;BME280;59263;48.160;11.752;2023-05-20T03:09:32;95836.41;;;11.24;100.00
71457;BME280;59263;48.160;11.752;2023-05-20T03:11:57;95838.19;;;11.24;100.00
71457;BME280;59263;48.160;11.752;2023-05-20T03:14:22;95813.19;;;11.05;100.00
71457;BME280;59263;48.160;11.752;2023-05-20T03:16:48;95856.69;;;11.29;100.00
71457;BME280;59263;48.160;11.752;2023-05-20T03:19:13;95872.47;;;11.35;100.00
71457;BME280;59263;48.160;11.752;2023-05-20T03:21:38;95870.41;;;11.39;100.00
71457;BME280;59263;48.160;11.752;2023-05-20T03:24:04;95872.19;;;11.38;100.00
71457;BME280;59263;48.160;11.752;2023-05-20T03:26:29;95864.28;;;11.30;100.00
71457;BME280;59263;48.160;11.752;2023-05-20T03:28:57;95874.66;;;11.30;100.00
71457;BME280;59263;48.160;11.752;2023-05-20T03:31:22;95853.19;;;11.20;100.00
71457;BME280;59263;48.160;11.752;2023-05-20T03:33:47;95851.56;;;11.19;100.00
71457;BME280;59263;48.160;11.752;2023-05-20T03:36:13;95844.75;;;11.18;100.00
71457;BME280;59263;48.160;11.752;2023-05-20T03:38:38;95857.78;;;11.26;100.00
71457;BME280;59263;48.160;11.752;2023-05-20T03:41:03;95865.94;;;11.31;100.00
71457;BME280;59263;48.160;11.752;2023-05-20T03:43:29;95829.25;;;11.08;100.00
71457;BME280;59263;48.160;11.752;2023-05-20T03:45:54;95866.53;;;11.25;100.00
71457;BME280;59263;48.160;11.752;2023-05-20T03:48:20;95873.03;;;11.29;100.00
71457;BME280;59263;48.160;11.752;2023-05-20T03:50:46;95871.41;;;11.28;100.00
71457;BME280;59263;48.160;11.752;2023-05-20T03:53:11;95838.81;;;11.08;100.00
71457;BME280;59263;48.160;11.752;2023-05-20T03:55:36;95861.09;;;11.19;100.00
71457;BME280;59263;48.160;11.752;2023-05-20T03:58:02;95881.09;;;11.26;100.00
71457;BME280;59263;48.160;11.752;2023-05-20T04:00:27;95859.63;;;11.16;100.00
71457;BME280;59263;48.160;11.752;2023-05-20T04:02:55;95854.06;;;11.11;100.00
71457;BME280;59263;48.160;11.752;2023-05-20T04:05:22;95841.31;;;11.00;100.00
71457;BME280;59263;48.160;11.752;2023-05-20T04:07:47;95872.00;;;11.22;100.00
71457;BME280;59263;48.160;11.752;2023-05-20T04:10:13;95880.16;;;11.27;100.00
71457;BME280;59263;48.160;11.752;2023-05-20T04:12:39;95845.63;;;11.09;100.00
71457;BME280;59263;48.160;11.752;2023-05-20T04:15:04;95871.41;;;11.28;100.00
71457;BME280;59263;48.160;11.752;2023-05-20T04:17:30;95866.22;;;11.28;100.00
71457;BME280;59263;48.160;11.752;2023-05-20T04:19:56;95858.06;;;11.23;100.00
71457;BME280;59263;48.160;11.752;2023-05-20T04:22:23;95860.53;;;11.25;100.00
71457;BME280;59263;48.160;11.752;2023-05-20T04:24:49;95871.41;;;11.28;100.00
71457;BME280;59263;48.160;11.752;2023-05-20T04:27:14;95863.25;;;11.23;100.00
71457;BME280;59263;48.160;11.752;2023-05-20T04:29:40;95869.28;;;11.24;100.00
71457;BME280;59263;48.160;11.752;2023-05-20T04:32:16;95869.78;;;11.27;100.00
71457;BME280;59263;48.160;11.752;2023-05-20T04:34:42;95876.00;;;11.34;100.00
71457;BME280;59263;48.160;11.752;2023-05-20T04:37:11;95877.66;;;11.35;100.00
71457;BME280;59263;48.160;11.752;2023-05-20T04:39:37;95848.22;;;11.27;100.00
71457;BME280;59263;48.160;11.752;2023-05-20T04:42:03;95847.41;;;11.26;100.00
71457;BME280;59263;48.160;11.752;2023-05-20T04:44:29;95855.66;;;11.39;100.00
71457;BME280;59263;48.160;11.752;2023-05-20T04:46:55;95853.06;;;11.39;100.00
71457;BME280;59263;48.160;11.752;2023-05-20T04:49:23;95873.19;;;11.46;100.00
71457;BME280;59263;48.160;11.752;2023-05-20T04:51:54;95865.53;;;11.54;100.00
71457;BME280;59263;48.160;11.752;2023-05-20T04:54:19;95865.00;;;11.50;100.00
71457;BME280;59263;48.160;11.752;2023-05-20T04:56:45;95864.19;;;11.50;100.00
71457;BME280;59263;48.160;11.752;2023-05-20T04:59:11;95857.66;;;11.46;100.00
71457;BME280;59263;48.160;11.752;2023-05-20T05:01:36;95872.63;;;11.52;100.00
71457;BME280;59263;48.160;11.752;2023-05-20T05:04:01;95871.75;;;11.61;100.00
71457;BME280;59263;48.160;11.752;2023-05-20T05:06:27;95853.22;;;11.56;100.00
71457;BME280;59263;48.160;11.752;2023-05-20T05:08:53;95873.66;;;11.59;100.00
71457;BME280;59263;48.160;11.752;2023-05-20T05:11:19;95849.44;;;11.50;100.00
71457;BME280;59263;48.160;11.752;2023-05-20T05:13:45;95850.56;;;11.48;100.00
71457;BME280;59263;48.160;11.752;2023-05-20T05:16:11;95860.97;;;11.56;100.00
71457;BME280;59263;48.160;11.752;2023-05-20T05:18:37;95863.88;;;11.53;100.00
71457;BME280;59263;48.160;11.752;2023-05-20T05:21:05;95856.78;;;11.55;100.00
71457;BME280;59263;48.160;11.752;2023-05-20T05:23:31;95851.06;;;11.51;100.00
71457;BME280;59263;48.160;11.752;2023-05-20T05:25:57;95855.34;;;11.60;100.00
71457;BME280;59263;48.160;11.752;2023-05-20T05:28:22;95842.31;;;11.52;100.00
71457;BME280;59263;48.160;11.752;2023-05-20T05:30:48;95850.41;;;11.67;100.00
71457;BME280;59263;48.160;11.752;2023-05-20T05:33:14;95843.31;;;11.69;100.00
71457;BME280;59263;48.160;11.752;2023-05-20T05:35:41;95856.47;;;11.76;100.00
71457;BME280;59263;48.160;11.752;2023-05-20T05:38:07;95861.50;;;11.77;100.00
71457;BME280;59263;48.160;11.752;2023-05-20T05:40:33;95843.53;;;11.76;100.00
71457;BME280;59263;48.160;11.752;2023-05-20T05:42:58;95829.66;;;11.67;100.00
71457;BME280;59263;48.160;11.752;2023-05-20T05:45:23;95851.91;;;11.88;100.00
71457;BME280;59263;48.160;11.752;2023-05-20T05:47:49;95813.53;;;11.73;100.00
71457;BME280;59263;48.160;11.752;2023-05-20T05:50:14;95843.31;;;11.87;100.00
71457;BME280;59263;48.160;11.752;2023-05-20T05:52:40;95849.84;;;11.91;100.00
71457;BME280;59263;48.160;11.752;2023-05-20T05:55:06;95842.56;;;11.95;100.00
71457;BME280;59263;48.160;11.752;2023-05-20T05:57:32;95826.63;;;11.90;100.00
71457;BME280;59263;48.160;11.752;2023-05-20T05:59:57;95853.34;;;12.08;100.00
71457;BME280;59263;48.160;11.752;2023-05-20T06:02:22;95829.94;;;12.00;100.00
71457;BME280;59263;48.160;11.752;2023-05-20T06:04:48;95852.44;;;12.17;100.00
71457;BME280;59263;48.160;11.752;2023-05-20T06:07:13;95846.34;;;12.26;100.00
71457;BME280;59263;48.160;11.752;2023-05-20T06:09:38;95859.69;;;12.31;100.00
71457;BME280;59263;48.160;11.752;2023-05-20T06:12:04;95844.19;;;12.22;100.00
71457;BME280;59263;48.160;11.752;2023-05-20T06:14:29;95865.56;;;12.42;100.00
71457;BME280;59263;48.160;11.752;2023-05-20T06:16:57;95842.16;;;12.33;100.00
71457;BME280;59263;48.160;11.752;2023-05-20T06:19:23;95821.41;;;12.33;100.00
71457;BME280;59263;48.160;11.752;2023-05-20T06:21:48;95845.41;;;12.62;100.00
71457;BME280;59263;48.160;11.752;2023-05-20T06:24:13;95846.81;;;12.56;100.00
71457;BME280;59263;48.160;11.752;2023-05-20T06:26:39;95840.31;;;12.52;100.00
71457;BME280;59263;48.160;11.752;2023-05-20T06:29:05;95843.38;;;12.47;100.00
71457;BME280;59263;48.160;11.752;2023-05-20T06:31:30;95841.91;;;12.45;100.00
71457;BME280;59263;48.160;11.752;2023-05-20T06:33:55;95836.56;;;12.46;100.00
71457;BME280;59263;48.160;11.752;2023-05-20T06:36:21;95844.91;;;12.58;100.00
71457;BME280;59263;48.160;11.752;2023-05-20T06:38:46;95845.91;;;12.65;100.00
71457;BME280;59263;48.160;11.752;2023-05-20T06:41:12;95840.41;;;12.68;100.00
71457;BME280;59263;48.160;11.752;2023-05-20T06:43:37;95838.78;;;12.75;100.00
71457;BME280;59263;48.160;11.752;2023-05-20T06:46:02;95829.09;;;12.77;100.00
71457;BME280;59263;48.160;11.752;2023-05-20T06:48:28;95813.13;;;12.64;100.00
71457;BME280;59263;48.160;11.752;2023-05-20T06:50:53;95841.28;;;12.85;100.00
71457;BME280;59263;48.160;11.752;2023-05-20T06:53:18;95846.66;;;12.92;100.00
71457;BME280;59263;48.160;11.752;2023-05-20T06:55:44;95816.31;;;12.92;100.00
71457;BME280;59263;48.160;11.752;2023-05-20T06:58:09;95844.81;;;13.18;100.00
71457;BME280;59263;48.160;11.752;2023-05-20T07:00:34;95820.75;;;13.08;100.00
71457;BME280;59263;48.160;11.752;2023-05-20T07:03:00;95819.81;;;13.17;100.00
71457;BME280;59263;48.160;11.752;2023-05-20T07:05:25;95816.22;;;13.18;100.00
71457;BME280;59263;48.160;11.752;2023-05-20T07:07:53;95818.56;;;13.46;100.00
71457;BME280;59263;48.160;11.752;2023-05-20T07:10:18;95829.97;;;13.86;100.00
71457;BME280;59263;48.160;11.752;2023-05-20T07:12:43;95815.81;;;14.04;100.00
71457;BME280;59263;48.160;11.752;2023-05-20T07:15:09;95798.88;;;14.25;100.00
71457;BME280;59263;48.160;11.752;2023-05-20T07:17:35;95812.69;;;14.25;100.00
71457;BME280;59263;48.160;11.752;2023-05-20T07:20:01;95802.56;;;14.47;100.00
71457;BME280;59263;48.160;11.752;2023-05-20T07:22:26;95800.25;;;14.68;100.00
71457;BME280;59263;48.160;11.752;2023-05-20T07:24:51;95791.44;;;14.69;100.00
71457;BME280;59263;48.160;11.752;2023-05-20T07:27:17;95774.25;;;14.52;100.00
71457;BME280;59263;48.160;11.752;2023-05-20T07:29:42;95791.59;;;14.68;100.00
71457;BME280;59263;48.160;11.752;2023-05-20T07:32:07;95786.44;;;14.99;100.00
71457;BME280;59263;48.160;11.752;2023-05-20T07:34:33;95765.72;;;15.29;100.00
71457;BME280;59263;48.160;11.752;2023-05-20T07:36:58;95774.69;;;15.49;100.00
71457;BME280;59263;48.160;11.752;2023-05-20T07:39:23;95752.47;;;15.53;100.00
71457;BME280;59263;48.160;11.752;2023-05-20T07:41:49;95777.66;;;15.92;100.00
71457;BME280;59263;48.160;11.752;2023-05-20T07:44:15;95759.47;;;15.84;100.00
71457;BME280;59263;48.160;11.752;2023-05-20T07:46:42;95769.72;;;16.00;100.00
71457;BME280;59263;48.160;11.752;2023-05-20T07:49:08;95764.16;;;16.03;100.00
71457;BME280;59263;48.160;11.752;2023-05-20T07:51:34;95769.19;;;16.05;100.00
71457;BME280;59263;48.160;11.752;2023-05-20T07:54:00;95765.06;;;16.10;100.00
71457;BME280;59263;48.160;11.752;2023-05-20T07:56:25;95772.38;;;16.15;100.00
71457;BME280;59263;48.160;11.752;2023-05-20T07:58:55;95758.06;;;16.26;100.00
71457;BME280;59263;48.160;11.752;2023-05-20T08:01:22;95758.06;;;16.26;100.00
71457;BME280;59263;48.160;11.752;2023-05-20T08:03:47;95723.84;;;16.20;100.00
71457;BME280;59263;48.160;11.752;2023-05-20T08:06:13;95728.31;;;16.41;100.00
71457;BME280;59263;48.160;11.752;2023-05-20T08:08:38;95736.94;;;16.72;100.00
71457;BME280;59263;48.160;11.752;2023-05-20T08:11:05;95739.25;;;16.96;100.00
71457;BME280;59263;48.160;11.752;2023-05-20T08:13:31;95741.91;;;17.17;100.00
71457;BME280;59263;48.160;11.752;2023-05-20T08:15:56;95730.25;;;17.20;100.00
71457;BME280;59263;48.160;11.752;2023-05-20T08:18:22;95720.63;;;17.21;100.00
71457;BME280;59263;48.160;11.752;2023-05-20T08:20:47;95723.34;;;17.34;100.00
71457;BME280;59263;48.160;11.752;2023-05-20T08:23:12;95730.63;;;17.38;100.00
71457;BME280;59263;48.160;11.752;2023-05-20T08:25:38;95715.66;;;17.54;100.00
71457;BME280;59263;48.160;11.752;2023-05-20T08:28:04;95705.91;;;17.41;100.00
71457;BME280;59263;48.160;11.752;2023-05-20T08:30:31;95715.72;;;17.60;100.00
71457;BME280;59263;48.160;11.752;2023-05-20T08:32:58;95711.88;;;17.56;100.00
71457;BME280;59263;48.160;11.752;2023-05-20T08:35:24;95710.25;;;17.55;100.00
71457;BME280;59263;48.160;11.752;2023-05-20T08:37:49;95720.53;;;17.57;100.00
71457;BME280;59263;48.160;11.752;2023-05-20T08:40:15;95708.38;;;17.49;100.00
71457;BME280;59263;48.160;11.752;2023-05-20T08:42:41;95723.03;;;17.65;100.00
71457;BME280;59263;48.160;11.752;2023-05-20T08:45:10;95713.97;;;17.67;100.00
71457;BME280;59263;48.160;11.752;2023-05-20T08:47:37;95723.84;;;17.65;100.00
71457;BME280;59263;48.160;11.752;2023-05-20T08:50:03;95711.13;;;17.62;100.00
71457;BME280;59263;48.160;11.752;2023-05-20T08:52:30;95718.97;;;17.84;100.00
71457;BME280;59263;48.160;11.752;2023-05-20T08:54:58;95682.91;;;17.58;100.00
71457;BME280;59263;48.160;11.752;2023-05-20T08:57:24;95703.00;;;17.79;100.00
71457;BME280;59263;48.160;11.752;2023-05-20T08:59:49;95699.59;;;17.78;100.00
71457;BME280;59263;48.160;11.752;2023-05-20T09:02:16;95713.97;;;17.89;100.00
71457;BME280;59263;48.160;11.752;2023-05-20T09:04:41;95697.59;;;17.80;100.00
71457;BME280;59263;48.160;11.752;2023-05-20T09:07:07;95711.63;;;18.01;100.00
71457;BME280;59263;48.160;11.752;2023-05-20T09:09:33;95686.25;;;17.73;100.00
71457;BME280;59263;48.160;11.752;2023-05-20T09:12:00;95710.00;;;18.00;100.00
71457;BME280;59263;48.160;11.752;2023-05-20T09:14:27;95716.91;;;18.07;100.00
71457;BME280;59263;48.160;11.752;2023-05-20T09:16:52;95718.13;;;18.11;100.00
71457;BME280;59263;48.160;11.752;2023-05-20T09:19:21;95674.75;;;17.96;100.00
71457;BME280;59263;48.160;11.752;2023-05-20T09:21:46;95711.59;;;18.29;100.00
71457;BME280;59263;48.160;11.752;2023-05-20T09:24:12;95701.91;;;18.29;100.00
71457;BME280;59263;48.160;11.752;2023-05-20T09:26:38;95700.72;;;18.32;100.00
71457;BME280;59263;48.160;11.752;2023-05-20T09:29:03;95711.03;;;18.40;100.00
71457;BME280;59263;48.160;11.752;2023-05-20T09:31:32;95705.22;;;18.45;100.00
71457;BME280;59263;48.160;11.752;2023-05-20T09:34:02;95705.47;;;18.56;100.00
71457;BME280;59263;48.160;11.752;2023-05-20T09:36:28;95703.72;;;18.70;100.00
71457;BME280;59263;48.160;11.752;2023-05-20T09:38:56;95702.78;;;18.84;100.00
71457;BME280;59263;48.160;11.752;2023-05-20T09:41:27;95703.19;;;18.88;100.00
71457;BME280;59263;48.160;11.752;2023-05-20T09:43:58;95700.41;;;19.09;100.00
71457;BME280;59263;48.160;11.752;2023-05-20T09:46:24;95636.19;;;18.72;100.00
71457;BME280;59263;48.160;11.752;2023-05-20T09:48:50;95681.84;;;19.04;100.00
71457;BME280;59263;48.160;11.752;2023-05-20T09:51:16;95698.84;;;19.42;100.00
71457;BME280;59263;48.160;11.752;2023-05-20T09:53:42;95678.03;;;19.53;100.00
71457;BME280;59263;48.160;11.752;2023-05-20T09:56:07;95676.63;;;19.91;100.00
71457;BME280;59263;48.160;11.752;2023-05-20T09:58:35;95669.69;;;20.23;100.00
71457;BME280;59263;48.160;11.752;2023-05-20T10:01:00;95652.25;;;20.35;100.00
71457;BME280;59263;48.160;11.752;2023-05-20T10:03:26;95598.97;;;20.15;100.00
71457;BME280;59263;48.160;11.752;2023-05-20T10:17:13;95668.47;;;20.25;100.00
71457;BME280;59263;48.160;11.752;2023-05-20T10:19:41;95643.03;;;20.13;100.00
71457;BME280;59263;48.160;11.752;2023-05-20T10:22:09;95598.59;;;20.04;100.00
71457;BME280;59263;48.160;11.752;2023-05-20T10:24:42;95604.66;;;20.12;100.00
71457;BME280;59263;48.160;11.752;2023-05-20T10:27:13;95664.06;;;20.71;100.00
71457;BME280;59263;48.160;11.752;2023-05-20T10:32:08;95586.88;;;20.59;100.00
71457;BME280;59263;48.160;11.752;2023-05-20T10:34:47;95590.13;;;20.86;100.00
71457;BME280;59263;48.160;11.752;2023-05-20T10:37:31;95575.91;;;20.93;100.00
71457;BME280;59263;48.160;11.752;2023-05-20T10:42:31;95635.84;;;21.48;100.00
71457;BME280;59263;48.160;11.752;2023-05-20T10:44:57;95636.97;;;21.59;100.00
71457;BME280;59263;48.160;11.752;2023-05-20T10:47:22;95644.34;;;21.50;100.00
71457;BME280;59263;48.160;11.752;2023-05-20T10:49:47;95612.94;;;21.23;100.00
71457;BME280;59263;48.160;11.752;2023-05-20T10:52:13;95639.22;;;21.30;100.00
71457;BME280;59263;48.160;11.752;2023-05-20T10:54:46;95642.88;;;21.29;100.00
71457;BME280;59263;48.160;11.752;2023-05-20T10:57:11;95642.50;;;21.25;100.00
71457;BME280;59263;48.160;11.752;2023-05-20T10:59:37;95635.06;;;21.16;100.00
71457;BME280;59263;48.160;11.752;2023-05-20T11:02:02;95629.22;;;21.14;100.00
71457;BME280;59263;48.160;11.752;2023-05-20T11:04:28;95638.03;;;21.26;100.00
71457;BME280;59263;48.160;11.752;2023-05-20T11:06:54;95611.72;;;21.26;100.00
71457;BME280;59263;48.160;11.752;2023-05-20T11:09:20;95626.44;;;21.59;100.00
71457;BME280;59263;48.160;11.752;2023-05-20T11:11:46;95576.97;;;21.42;100.00
71457;BME280;59263;48.160;11.752;2023-05-20T11:14:11;95591.13;;;21.66;100.00
71457;BME280;59263;48.160;11.752;2023-05-20T11:16:41;95557.69;;;21.48;100.00
71457;BME280;59263;48.160;11.752;2023-05-20T11:19:14;95599.25;;;21.83;100.00
71457;BME280;59263;48.160;11.752;2023-05-20T11:21:46;95598.25;;;21.84;100.00
71457;BME280;59263;48.160;11.752;2023-05-20T11:24:12;95554.31;;;21.60;100.00
71457;BME280;59263;48.160;11.752;2023-05-20T11:26:38;95535.22;;;21.46;100.00
71457;BME280;59263;48.160;11.752;2023-05-20T11:29:04;95571.28;;;21.64;100.00
71457;BME280;59263;48.160;11.752;2023-05-20T11:31:30;95610.16;;;22.05;100.00
71457;BME280;59263;48.160;11.752;2023-05-20T11:33:58;95526.97;;;21.61;100.00
71457;BME280;59263;48.160;11.752;2023-05-20T11:36:26;95539.25;;;21.85;100.00
71457;BME280;59263;48.160;11.752;2023-05-20T11:38:56;95545.38;;;21.97;100.00
71457;BME280;59263;48.160;11.752;2023-05-20T11:41:25;95546.84;;;22.12;100.00
71457;BME280;59263;48.160;11.752;2023-05-20T11:43:56;95595.44;;;22.53;100.00
71457;BME280;59263;48.160;11.752;2023-05-20T11:46:22;95553.59;;;22.26;100.00
71457;BME280;59263;48.160;11.752;2023-05-20T11:48:55;95572.28;;;22.55;100.00
71457;BME280;59263;48.160;11.752;2023-05-20T11:51:25;95510.47;;;22.20;100.00
71457;BME280;59263;48.160;11.752;2023-05-20T11:53:51;95531.03;;;22.30;100.00
71457;BME280;59263;48.160;11.752;2023-05-20T11:56:16;95577.19;;;22.51;100.00
71457;BME280;59263;48.160;11.752;2023-05-20T11:58:45;95527.50;;;22.36;100.00
71457;BME280;59263;48.160;11.752;2023-05-20T12:01:10;95554.22;;;22.70;100.00
71457;BME280;59263;48.160;11.752;2023-05-20T12:03:35;95561.53;;;22.68;100.00
71457;BME280;59263;48.160;11.752;2023-05-20T12:06:04;95522.38;;;22.53;100.00
71457;BME280;59263;48.160;11.752;2023-05-20T12:08:29;95549.50;;;22.72;100.00
71457;BME280;59263;48.160;11.752;2023-05-20T12:10:55;95558.47;;;22.83;96.84
71457;BME280;59263;48.160;11.752;2023-05-20T12:13:20;95518.50;;;22.56;100.00
71457;BME280;59263;48.160;11.752;2023-05-20T12:15:47;95551.72;;;22.87;97.49
71457;BME280;59263;48.160;11.752;2023-05-20T12:18:13;95567.72;;;22.92;98.95
71457;BME280;59263;48.160;11.752;2023-05-20T12:20:38;95545.69;;;22.68;92.26
71457;BME280;59263;48.160;11.752;2023-05-20T12:23:03;95539.97;;;22.71;92.81
71457;BME280;59263;48.160;11.752;2023-05-20T12:25:29;95517.19;;;22.46;92.45
71457;BME280;59263;48.160;11.752;2023-05-20T12:27:58;95526.22;;;22.39;93.67
71457;BME280;59263;48.160;11.752;2023-05-20T12:30:23;95513.91;;;22.21;94.21
71457;BME280;59263;48.160;11.752;2023-05-20T12:32:51;95497.22;;;22.09;99.12
71457;BME280;59263;48.160;11.752;2023-05-20T12:35:44;95536.16;;;22.25;100.00
71457;BME280;59263;48.160;11.752;2023-05-20T12:38:11;95533.06;;;22.28;100.00
71457;BME280;59263;48.160;11.752;2023-05-20T12:40:36;95539.44;;;22.20;100.00
71457;BME280;59263;48.160;11.752;2023-05-20T12:43:03;95541.53;;;22.18;100.00
71457;BME280;59263;48.160;11.752;2023-05-20T12:45:31;95519.41;;;22.01;100.00
71457;BME280;59263;48.160;11.752;2023-05-20T12:48:00;95499.06;;;21.90;100.00
71457;BME280;59263;48.160;11.752;2023-05-20T12:50:30;95543.97;;;22.13;100.00
71457;BME280;59263;48.160;11.752;2023-05-20T12:52:56;95548.84;;;22.16;100.00